North Broadalbin, New York
Current Conditions -  °F | °C
As of 11:15 PM on Monday 22 Dec 2014 (Local Time) from KNY0 Reporting Station
Overcast Overcast  
Wind Chill: 28°   Ceiling: 1200
Heat Index: 33°   Visibility: 10mi
Dew Point: 30°   Wind: 5mph
Humidity: 88%   Direction: 70°ENE
Pressure: 30.2"   Gusts: NA
Location:  43.0744°N, 74.1473°W
Report Text: KNY0 230415Z AUTO 07004KT 10SM OVC012 00/M01 A3020 RMK AO2 T00041013
Loading
Personal Weather Stations






























Interactive Weather Map New forecast layout! Learn more

10-Day Weather Forecast

Advertisements
Track Severe Weather on mobile